Time;durP1;ratioP1;P1;durP2;ratioP2;P2;SDS_P1;SDS_P2;PMS_P1;PMS_P2;Temp;Humidity;BMP_temperature;BMP_pressure;BME280_temperature;BME280_humidity;BME280_pressure;Samples;Min_cycle;Max_cycle;Signal;HPM_P1;HPM_P2
2023/08/15 00:01:45;;;;;;;6.15;3.13;;;;;;;19.49;82.03;101171.00;10496195;28;20040;-69
2023/08/15 00:06:45;;;;;;;3.05;2.63;;;;;;;19.53;82.32;101180.44;10477628;28;20064;-69
2023/08/15 00:11:46;;;;;;;3.40;2.60;;;;;;;19.65;86.71;101164.69;10495385;28;20093;-70
2023/08/15 00:16:46;;;;;;;8.35;2.83;;;;;;;19.68;84.86;101155.13;10494874;28;20056;-69
2023/08/15 00:21:47;;;;;;;8.63;3.00;;;;;;;19.54;85.27;101159.28;10495434;28;20040;-70
2023/08/15 00:26:47;;;;;;;5.72;2.72;;;;;;;19.32;85.22;101168.25;10493313;28;20037;-70
2023/08/15 00:31:47;;;;;;;6.22;3.30;;;;;;;19.16;87.69;101172.66;10494932;28;20475;-69
2023/08/15 00:36:48;;;;;;;7.57;2.78;;;;;;;19.09;91.21;101171.16;10497244;28;20084;-69
2023/08/15 00:41:48;;;;;;;4.13;2.53;;;;;;;19.13;92.68;101172.31;10499711;28;20117;-69
2023/08/15 00:46:49;;;;;;;3.25;2.80;;;;;;;19.17;92.29;101170.75;10496392;28;20173;-70
2023/08/15 00:51:49;;;;;;;11.15;3.05;;;;;;;19.08;93.59;101172.22;10501748;28;20067;-70
2023/08/15 00:56:50;;;;;;;11.48;3.35;;;;;;;19.01;94.14;101183.38;10501164;28;20079;-69
2023/08/15 01:01:50;;;;;;;6.50;2.83;;;;;;;19.05;93.70;101182.63;10501007;28;20118;-69
2023/08/15 01:06:50;;;;;;;10.00;3.47;;;;;;;19.03;95.95;101183.97;10503782;28;20129;-69
2023/08/15 01:11:57;;;;;;;4.88;3.28;;;;;;;18.97;98.09;101179.44;10503077;28;20040;-69
2023/08/15 01:16:57;;;;;;;6.53;3.08;;;;;;;18.86;98.17;101170.22;10502081;28;20456;-69
2023/08/15 01:21:58;;;;;;;11.73;3.15;;;;;;;18.79;98.43;101170.38;10517558;28;20120;-69
2023/08/15 01:26:58;;;;;;;7.03;3.03;;;;;;;18.72;97.88;101155.94;10500908;28;20424;-70
2023/08/15 01:32:04;;;;;;;11.30;2.67;;;;;;;18.66;98.83;101159.63;10501156;28;20052;-69
2023/08/15 01:37:24;;;;;;;9.57;4.00;;;;;;;18.62;99.90;101166.69;10499653;28;20081;-69
2023/08/15 01:42:25;;;;;;;9.15;4.43;;;;;;;18.56;100.00;101173.16;10484444;28;20409;-69
2023/08/15 01:47:25;;;;;;;8.32;4.25;;;;;;;18.53;100.00;101185.44;10499446;28;20090;-69
2023/08/15 01:52:26;;;;;;;9.80;4.05;;;;;;;18.53;100.00;101188.19;10498933;28;20103;-69
2023/08/15 01:57:26;;;;;;;13.02;3.63;;;;;;;18.53;100.00;101190.91;10500854;28;20460;-69
2023/08/15 02:02:26;;;;;;;14.88;2.95;;;;;;;18.53;100.00;101188.19;10498924;28;20121;-69
2023/08/15 02:07:27;;;;;;;17.30;5.03;;;;;;;18.67;100.00;101193.41;10499464;28;20032;-69
2023/08/15 02:12:27;;;;;;;4.28;3.00;;;;;;;18.68;100.00;101193.16;10499906;28;20049;-69
2023/08/15 02:17:28;;;;;;;4.15;3.67;;;;;;;18.63;100.00;101197.69;10498902;28;20045;-69
2023/08/15 02:22:28;;;;;;;5.07;2.95;;;;;;;18.53;100.00;101203.81;10497718;28;20037;-69
2023/08/15 02:27:28;;;;;;;12.00;3.80;;;;;;;18.48;100.00;101200.97;10501082;28;20044;-69
2023/08/15 02:32:29;;;;;;;7.43;3.40;;;;;;;18.43;100.00;101204.44;10498439;28;20037;-69
2023/08/15 02:37:29;;;;;;;17.58;3.90;;;;;;;18.32;100.00;101203.41;10497834;28;20036;-69
2023/08/15 02:42:29;;;;;;;11.05;3.83;;;;;;;18.21;100.00;101209.72;10498278;28;20131;-69
2023/08/15 02:47:30;;;;;;;13.63;3.75;;;;;;;18.13;100.00;101215.59;10497962;28;20154;-70
2023/08/15 02:52:30;;;;;;;4.85;2.67;;;;;;;18.06;100.00;101214.84;10497652;28;20041;-69
2023/08/15 02:57:31;;;;;;;10.50;3.92;;;;;;;18.06;100.00;101221.19;10495652;28;20222;-69
2023/08/15 03:02:31;;;;;;;8.68;4.10;;;;;;;17.99;100.00;101231.41;10480353;28;20114;-69
2023/08/15 03:07:32;;;;;;;11.50;3.53;;;;;;;17.96;100.00;101251.06;10497250;28;20384;-69
2023/08/15 03:12:32;;;;;;;9.60;4.70;;;;;;;17.92;100.00;101244.41;10497769;28;20109;-69
2023/08/15 03:17:34;;;;;;;5.63;3.78;;;;;;;17.93;100.00;101231.53;10505379;28;20383;-69
2023/08/15 03:22:34;;;;;;;7.60;3.88;;;;;;;17.88;100.00;101241.31;10509503;28;20039;-70
2023/08/15 03:27:34;;;;;;;17.33;4.53;;;;;;;17.89;100.00;101242.97;10495471;28;20037;-69
2023/08/15 03:32:35;;;;;;;10.48;4.22;;;;;;;17.95;100.00;101243.94;10496589;28;20048;-69
2023/08/15 03:37:35;;;;;;;10.95;3.83;;;;;;;17.99;100.00;101247.03;10496316;28;20052;-69
2023/08/15 03:42:35;;;;;;;12.18;3.72;;;;;;;18.02;100.00;101257.53;10495404;28;20122;-70
2023/08/15 03:47:36;;;;;;;7.20;3.15;;;;;;;18.06;100.00;101261.44;10495573;28;20098;-69
2023/08/15 03:52:36;;;;;;;6.22;4.03;;;;;;;18.10;100.00;101270.88;10496684;28;20041;-70
2023/08/15 03:57:37;;;;;;;9.50;3.95;;;;;;;18.12;100.00;101275.06;10496360;28;20052;-70
2023/08/15 04:02:37;;;;;;;6.60;4.43;;;;;;;18.16;100.00;101282.81;10494236;28;20044;-69
2023/08/15 04:07:41;;;;;;;6.90;4.68;;;;;;;18.15;100.00;101279.19;10495110;28;20045;-69
2023/08/15 04:12:41;;;;;;;16.90;4.13;;;;;;;18.11;100.00;101278.00;10494115;28;20078;-69
2023/08/15 04:17:41;;;;;;;12.63;3.95;;;;;;;18.08;100.00;101281.22;10494995;28;20533;-70
2023/08/15 04:22:42;;;;;;;13.07;4.25;;;;;;;18.04;100.00;101277.31;10495107;28;20036;-69
2023/08/15 04:27:43;;;;;;;10.52;4.97;;;;;;;18.10;100.00;101273.63;10501514;28;20064;-69
2023/08/15 04:32:45;;;;;;;15.18;5.47;;;;;;;18.19;100.00;101255.75;10504019;28;20047;-69
2023/08/15 04:37:45;;;;;;;6.05;4.18;;;;;;;18.26;100.00;101255.63;10502148;28;20038;-70
2023/08/15 04:42:46;;;;;;;8.18;4.75;;;;;;;18.23;100.00;101259.66;10503111;28;20033;-71
2023/08/15 04:47:46;;;;;;;16.73;5.50;;;;;;;18.21;100.00;101266.44;10502281;28;20384;-72
2023/08/15 04:52:47;;;;;;;11.60;4.47;;;;;;;18.23;100.00;101261.56;10501276;28;20036;-71
2023/08/15 04:57:47;;;;;;;5.88;5.07;;;;;;;18.43;100.00;101264.75;10500542;28;20507;-69
2023/08/15 05:02:48;;;;;;;14.90;6.00;;;;;;;18.53;100.00;101266.88;10501615;28;20064;-68
2023/08/15 05:07:48;;;;;;;16.05;5.35;;;;;;;18.50;100.00;101276.41;10502033;28;20067;-70
2023/08/15 05:12:48;;;;;;;8.90;4.28;;;;;;;18.42;100.00;101281.47;10501201;28;20460;-70
2023/08/15 05:17:50;;;;;;;16.52;5.07;;;;;;;18.42;100.00;101279.56;10501813;28;20040;-71
2023/08/15 05:22:50;;;;;;;22.73;7.50;;;;;;;18.42;100.00;101297.91;10499793;28;20448;-70
2023/08/15 05:27:50;;;;;;;10.48;5.25;;;;;;;18.35;100.00;101304.38;10501063;28;20074;-70
2023/08/15 05:32:51;;;;;;;13.88;5.80;;;;;;;18.30;100.00;101301.50;10501247;28;20032;-70
2023/08/15 05:37:51;;;;;;;10.35;4.97;;;;;;;18.28;100.00;101309.13;10500050;28;20044;-70
2023/08/15 05:42:52;;;;;;;11.45;5.30;;;;;;;18.49;100.00;101309.59;10500345;28;20090;-70
2023/08/15 05:47:52;;;;;;;11.52;5.80;;;;;;;19.92;100.00;101312.44;10502472;28;20068;-70
2023/08/15 05:52:52;;;;;;;6.65;4.95;;;;;;;20.76;100.00;101306.78;10504667;28;20082;-70
2023/08/15 05:57:53;;;;;;;6.82;4.90;;;;;;;21.30;100.00;101319.81;10505276;28;20060;-71
2023/08/15 06:02:53;;;;;;;5.30;4.05;;;;;;;21.02;100.00;101323.63;10499446;28;20028;-70
2023/08/15 06:07:54;;;;;;;8.73;3.78;;;;;;;22.11;100.00;101319.75;10498540;28;20044;-70
2023/08/15 06:12:54;;;;;;;8.77;5.53;;;;;;;22.30;100.00;101342.28;10514608;28;20115;-70
2023/08/15 06:17:55;;;;;;;5.28;3.58;;;;;;;22.55;100.00;101346.31;10498765;28;20044;-70
2023/08/15 06:22:55;;;;;;;12.27;4.40;;;;;;;23.42;100.00;101358.59;10496755;28;20039;-71
2023/08/15 06:27:56;;;;;;;7.25;3.85;;;;;;;23.74;100.00;101363.09;10498554;28;20036;-71
2023/08/15 06:32:56;;;;;;;7.72;4.13;;;;;;;24.44;100.00;101371.69;10498339;28;20174;-71
2023/08/15 06:37:57;;;;;;;11.23;4.07;;;;;;;25.02;100.00;101388.75;10496172;28;20028;-70
2023/08/15 06:42:57;;;;;;;7.00;3.90;;;;;;;25.64;96.81;101394.84;10497101;28;20028;-70
2023/08/15 06:47:57;;;;;;;14.38;4.20;;;;;;;25.53;93.09;101394.09;10495802;28;20484;-70
2023/08/15 06:52:58;;;;;;;17.67;3.80;;;;;;;26.31;88.05;101381.31;10498247;28;20047;-70
2023/08/15 06:57:58;;;;;;;6.22;3.85;;;;;;;25.98;88.98;101389.38;10495862;28;20055;-70
2023/08/15 07:02:59;;;;;;;7.05;3.58;;;;;;;24.87;95.20;101392.38;10495450;28;20494;-70
2023/08/15 07:08:00;;;;;;;6.45;3.90;;;;;;;23.82;96.97;101399.34;10512523;28;20123;-70
2023/08/15 07:13:00;;;;;;;5.60;3.42;;;;;;;23.60;98.32;101395.97;10496578;28;20056;-71
2023/08/15 07:18:01;;;;;;;6.28;2.63;;;;;;;23.89;98.80;101405.44;10497477;28;20444;-70
2023/08/15 07:23:01;;;;;;;2.63;2.50;;;;;;;23.67;98.39;101410.34;10494909;28;20032;-70
2023/08/15 07:28:01;;;;;;;10.07;4.18;;;;;;;22.79;100.00;101405.53;10494363;28;20434;-70
2023/08/15 07:33:02;;;;;;;8.75;3.35;;;;;;;22.19;100.00;101420.56;10495615;28;20032;-70
2023/08/15 07:38:03;;;;;;;12.02;3.67;;;;;;;22.13;100.00;101416.88;10496138;28;20482;-70
2023/08/15 07:43:03;;;;;;;5.53;4.13;;;;;;;22.16;100.00;101423.84;10495398;28;20036;-70
2023/08/15 07:48:05;;;;;;;8.38;3.92;;;;;;;22.34;100.00;101428.97;10495294;28;20033;-70
2023/08/15 07:53:06;;;;;;;6.18;4.25;;;;;;;22.23;100.00;101429.97;10493865;28;20036;-70
2023/08/15 07:58:06;;;;;;;6.65;4.28;;;;;;;21.92;100.00;101426.91;10493760;28;20548;-70
2023/08/15 08:03:06;;;;;;;8.75;3.38;;;;;;;21.82;100.00;101441.41;10494256;28;20040;-70
2023/08/15 08:08:08;;;;;;;4.65;4.07;;;;;;;21.97;100.00;101442.66;10494486;28;20040;-70
2023/08/15 08:13:11;;;;;;;5.15;3.08;;;;;;;22.13;100.00;101455.50;10494342;28;20033;-70
2023/08/15 08:18:12;;;;;;;3.85;3.28;;;;;;;22.25;100.00;101458.97;10494394;28;20036;-70
2023/08/15 08:23:13;;;;;;;3.28;2.60;;;;;;;21.99;100.00;101476.31;10493663;28;20115;-70
2023/08/15 08:28:13;;;;;;;3.90;1.52;;;;;;;21.89;100.00;101474.28;10493387;28;20040;-70
2023/08/15 08:33:14;;;;;;;4.32;2.10;;;;;;;22.71;100.00;101477.81;10492793;28;20464;-70
2023/08/15 08:38:14;;;;;;;7.15;2.30;;;;;;;23.55;100.00;101487.19;10494656;28;20036;-70
2023/08/15 08:43:15;;;;;;;2.45;1.60;;;;;;;23.21;100.00;101482.88;10494520;28;20035;-71
2023/08/15 08:48:16;;;;;;;1.33;1.33;;;;;;;22.79;100.00;101488.38;10492624;28;20462;-70
2023/08/15 08:53:16;;;;;;;1.88;1.77;;;;;;;22.74;100.00;101480.88;10494126;28;20036;-70
2023/08/15 08:58:17;;;;;;;5.97;3.05;;;;;;;23.18;100.00;101485.34;10493548;28;20094;-70
2023/08/15 09:03:17;;;;;;;1.45;1.35;;;;;;;22.86;100.00;101499.19;10493190;28;20040;-71
2023/08/15 09:08:17;;;;;;;1.40;1.40;;;;;;;21.41;100.00;101503.50;10491767;28;20086;-70
2023/08/15 09:13:23;;;;;;;5.82;2.55;;;;;;;21.23;100.00;101496.31;10500435;28;20064;-70
2023/08/15 09:18:26;;;;;;;2.03;1.77;;;;;;;21.44;100.00;101504.88;10499691;28;20036;-71
2023/08/15 09:23:27;;;;;;;1.45;1.30;;;;;;;21.69;100.00;101501.63;10501382;28;20025;-70
2023/08/15 09:28:34;;;;;;;2.20;1.35;;;;;;;21.99;100.00;101510.25;10500076;28;20234;-70
2023/08/15 09:33:35;;;;;;;2.47;1.52;;;;;;;21.19;100.00;101510.88;10484030;28;20032;-70
2023/08/15 09:38:36;;;;;;;2.15;1.58;;;;;;;20.84;100.00;101514.75;10500749;28;20185;-70
2023/08/15 09:43:37;;;;;;;2.20;2.10;;;;;;;21.50;100.00;101507.44;10499133;28;20468;-70
2023/08/15 09:48:37;;;;;;;2.75;2.40;;;;;;;22.12;100.00;101519.22;10498240;28;20035;-71
2023/08/15 09:53:38;;;;;;;3.13;2.90;;;;;;;22.26;100.00;101528.75;10498091;28;20039;-70
2023/08/15 09:58:39;;;;;;;3.58;2.28;;;;;;;22.22;100.00;101535.91;10515185;28;20080;-70
2023/08/15 10:03:39;;;;;;;13.07;1.95;;;;;;;22.32;100.00;101540.69;10497422;28;20479;-71
2023/08/15 10:08:40;;;;;;;5.20;1.85;;;;;;;22.56;100.00;101538.41;10498160;28;20031;-71
2023/08/15 10:13:41;;;;;;;3.65;2.35;;;;;;;22.57;100.00;101551.16;10497050;28;20036;-70
2023/08/15 10:18:54;;;;;;;2.28;1.77;;;;;;;22.59;100.00;101562.75;10514705;28;20036;-71
2023/08/15 10:23:55;;;;;;;1.42;1.33;;;;;;;22.35;100.00;101563.06;10513450;28;20028;-70
2023/08/15 10:28:55;;;;;;;1.85;1.75;;;;;;;22.18;100.00;101573.38;10496708;28;20448;-70
2023/08/15 10:33:56;;;;;;;2.75;1.92;;;;;;;22.61;100.00;101569.66;10495618;28;20105;-70
2023/08/15 10:38:56;;;;;;;6.82;2.05;;;;;;;22.90;100.00;101578.47;10496145;28;20044;-71
2023/08/15 10:43:59;;;;;;;1.80;1.70;;;;;;;23.24;100.00;101575.47;10495185;28;20143;-70
2023/08/15 10:49:13;;;;;;;2.28;1.52;;;;;;;23.27;100.00;101579.63;10495358;28;20054;-71
2023/08/15 10:54:14;;;;;;;5.20;2.00;;;;;;;24.32;99.99;101582.34;10497375;28;20499;-71
2023/08/15 10:59:15;;;;;;;10.57;2.65;;;;;;;24.20;98.45;101588.13;10495964;28;20048;-70
2023/08/15 11:04:16;;;;;;;2.83;2.60;;;;;;;24.64;96.16;101596.00;10495080;28;20029;-71
2023/08/15 11:09:17;;;;;;;2.45;1.45;;;;;;;25.28;92.88;101598.25;10497219;28;20036;-71
2023/08/15 11:14:18;;;;;;;3.42;2.20;;;;;;;25.69;89.79;101592.59;10478569;28;20048;-71
2023/08/15 11:19:19;;;;;;;2.25;1.95;;;;;;;26.54;87.22;101593.63;10494347;28;20123;-71
2023/08/15 11:24:19;;;;;;;3.60;1.63;;;;;;;27.45;80.38;101597.59;10496574;28;20037;-71
2023/08/15 11:29:20;;;;;;;1.85;1.75;;;;;;;28.90;74.07;101601.78;10493990;28;20032;-71
2023/08/15 11:34:21;;;;;;;7.75;2.53;;;;;;;28.21;74.59;101601.41;10493577;28;20036;-71
2023/08/15 11:39:22;;;;;;;4.05;1.60;;;;;;;27.47;76.69;101608.41;10496615;28;20119;-71
2023/08/15 11:44:22;;;;;;;2.33;2.13;;;;;;;27.78;73.40;101612.53;10495168;28;20112;-71
2023/08/15 11:49:23;;;;;;;6.90;2.25;;;;;;;28.25;70.22;101610.00;10495088;28;20032;-71
2023/08/15 11:54:26;;;;;;;1.67;1.58;;;;;;;28.74;68.96;101611.53;10496040;28;20115;-71
2023/08/15 11:59:27;;;;;;;2.80;1.83;;;;;;;27.13;69.23;101610.13;10509962;28;20067;-71
2023/08/15 12:04:27;;;;;;;1.73;1.63;;;;;;;25.93;74.51;101611.41;10494689;28;20067;-71
2023/08/15 12:09:29;;;;;;;3.08;1.88;;;;;;;27.87;69.73;101612.72;10476966;28;20472;-71
2023/08/15 12:14:29;;;;;;;5.97;2.28;;;;;;;28.28;66.56;101612.19;10493036;28;20437;-71
2023/08/15 12:19:29;;;;;;;8.38;1.92;;;;;;;28.51;62.47;101619.66;10494304;28;20044;-72
2023/08/15 12:24:30;;;;;;;2.30;1.75;;;;;;;28.81;56.88;101620.31;10494598;28;20044;-71
2023/08/15 12:29:30;;;;;;;6.70;2.10;;;;;;;28.66;57.00;101617.81;10493995;28;20386;-71
2023/08/15 12:34:30;;;;;;;3.03;1.77;;;;;;;28.96;57.28;101620.06;10492730;28;20273;-71
2023/08/15 12:39:32;;;;;;;2.70;2.17;;;;;;;29.16;57.49;101623.69;10495562;28;20041;-71
2023/08/15 12:44:32;;;;;;;3.80;1.95;;;;;;;29.72;59.28;101628.25;10492980;28;20126;-71
2023/08/15 12:49:32;;;;;;;2.05;1.40;;;;;;;30.38;57.62;101634.44;10501533;28;20085;-71
2023/08/15 12:54:33;;;;;;;2.78;1.60;;;;;;;30.75;58.35;101633.28;10518127;28;20108;-71
2023/08/15 12:59:34;;;;;;;3.10;2.42;;;;;;;30.09;54.01;101635.59;10501727;28;20045;-71
2023/08/15 13:04:34;;;;;;;7.97;2.17;;;;;;;30.02;58.00;101640.75;10501899;28;20210;-71
2023/08/15 13:09:34;;;;;;;7.93;1.58;;;;;;;30.24;58.30;101628.03;10503769;28;20044;-71
2023/08/15 13:14:35;;;;;;;4.70;1.95;;;;;;;30.51;56.01;101643.94;10502423;28;20494;-71
2023/08/15 13:19:36;;;;;;;4.32;2.58;;;;;;;30.51;55.33;101632.75;10500238;28;20032;-71
2023/08/15 13:24:36;;;;;;;6.20;2.65;;;;;;;30.32;56.34;101644.06;10499208;28;20032;-71
2023/08/15 13:29:37;;;;;;;4.47;2.40;;;;;;;30.58;57.72;101638.72;10500382;28;20044;-71
2023/08/15 13:34:37;;;;;;;8.50;1.77;;;;;;;30.42;55.83;101643.03;10498891;28;20064;-71
2023/08/15 13:39:38;;;;;;;2.67;2.10;;;;;;;30.35;54.30;101643.44;10501120;28;20141;-71
2023/08/15 13:44:39;;;;;;;3.55;2.38;;;;;;;30.22;55.94;101635.94;10499757;28;20174;-71
2023/08/15 13:49:39;;;;;;;1.70;1.60;;;;;;;29.83;54.84;101640.03;10499503;28;20341;-71
2023/08/15 13:54:39;;;;;;;2.08;1.88;;;;;;;29.87;56.14;101646.69;10498892;28;20430;-72
2023/08/15 13:59:40;;;;;;;2.47;1.75;;;;;;;29.85;57.69;101646.97;10498802;28;20141;-71
2023/08/15 14:04:40;;;;;;;3.38;2.35;;;;;;;29.83;53.25;101654.00;10498642;28;20059;-71
2023/08/15 14:09:41;;;;;;;2.35;2.15;;;;;;;29.59;53.13;101656.97;10496756;28;20039;-71
2023/08/15 14:14:41;;;;;;;2.65;1.77;;;;;;;29.54;54.87;101657.03;10496728;28;20101;-71
2023/08/15 14:19:42;;;;;;;7.03;1.88;;;;;;;28.94;55.36;101657.75;10496942;28;20039;-71
2023/08/15 14:24:46;;;;;;;12.43;2.17;;;;;;;28.41;56.29;101656.03;10498430;28;20036;-71
2023/08/15 14:29:50;;;;;;;3.75;2.03;;;;;;;28.59;57.34;101671.13;10498481;28;20280;-71
2023/08/15 14:34:51;;;;;;;6.93;1.98;;;;;;;28.16;54.86;101670.28;10498474;28;20139;-71
2023/08/15 14:39:51;;;;;;;4.35;2.80;;;;;;;27.82;56.84;101676.78;10497267;28;20040;-71
2023/08/15 14:44:51;;;;;;;6.07;2.38;;;;;;;27.67;57.10;101683.31;10498387;28;20111;-71
2023/08/15 14:49:52;;;;;;;4.60;1.97;;;;;;;27.58;58.22;101680.34;10497889;28;20044;-71
2023/08/15 14:54:52;;;;;;;5.93;3.55;;;;;;;27.29;59.36;101676.72;10497109;28;20269;-71
2023/08/15 14:59:53;;;;;;;7.00;2.45;;;;;;;27.03;58.65;101692.78;10494598;28;20040;-71
2023/08/15 15:04:54;;;;;;;5.57;2.10;;;;;;;26.91;60.20;101687.56;10494495;28;20033;-71
2023/08/15 15:09:54;;;;;;;2.85;2.50;;;;;;;26.72;60.84;101692.13;10478318;28;20028;-71
2023/08/15 15:14:58;;;;;;;2.65;2.20;;;;;;;26.20;59.20;101697.91;10496370;28;20437;-71
2023/08/15 15:19:58;;;;;;;1.90;1.80;;;;;;;25.88;58.81;101701.06;10495924;28;20052;-71
2023/08/15 15:24:58;;;;;;;9.73;2.17;;;;;;;25.12;59.15;101713.00;10495023;28;20048;-71
2023/08/15 15:29:59;;;;;;;2.90;2.20;;;;;;;24.68;58.37;101710.66;10496889;28;20055;-71
2023/08/15 15:34:59;;;;;;;1.88;1.38;;;;;;;24.52;58.57;101717.25;10511846;28;20040;-71
2023/08/15 15:40:00;;;;;;;3.30;2.13;;;;;;;24.47;59.45;101706.16;10477668;28;20032;-71
2023/08/15 15:45:00;;;;;;;8.88;1.45;;;;;;;24.29;60.49;101715.75;10496411;28;20127;-71
2023/08/15 15:50:01;;;;;;;6.75;1.85;;;;;;;23.91;60.54;101706.69;10495281;28;20032;-71
2023/08/15 15:55:02;;;;;;;11.15;1.90;;;;;;;23.57;61.25;101717.22;10494696;28;20031;-70
2023/08/15 16:00:03;;;;;;;6.60;1.63;;;;;;;23.29;61.12;101718.34;10495607;28;20067;-71
2023/08/15 16:05:03;;;;;;;1.65;1.55;;;;;;;22.81;60.94;101720.06;10493796;28;20132;-71
2023/08/15 16:10:04;;;;;;;4.95;1.60;;;;;;;22.50;61.46;101726.06;10494193;28;20072;-70
2023/08/15 16:15:05;;;;;;;1.60;1.42;;;;;;;22.32;61.69;101733.84;10492908;28;20043;-71
2023/08/15 16:20:06;;;;;;;1.92;1.83;;;;;;;22.21;62.57;101732.88;10494425;28;20124;-71
2023/08/15 16:25:07;;;;;;;3.10;2.03;;;;;;;22.14;62.42;101740.44;10493604;28;20033;-71
2023/08/15 16:30:08;;;;;;;5.63;2.45;;;;;;;21.94;63.27;101739.06;10510408;28;20029;-70
2023/08/15 16:35:08;;;;;;;1.90;1.80;;;;;;;21.77;64.35;101739.09;10493623;28;20059;-70
2023/08/15 16:40:09;;;;;;;2.47;1.63;;;;;;;21.56;63.92;101737.94;10495301;28;20037;-71
2023/08/15 16:45:09;;;;;;;6.28;1.92;;;;;;;21.43;63.82;101737.44;10494134;28;20029;-71
2023/08/15 16:50:10;;;;;;;2.10;1.85;;;;;;;21.34;64.03;101739.72;10492515;28;20032;-70
2023/08/15 16:55:10;;;;;;;2.25;1.95;;;;;;;21.30;63.76;101746.81;10493459;28;20037;-71
2023/08/15 17:00:11;;;;;;;1.48;1.48;;;;;;;21.19;64.02;101754.09;10492595;28;20049;-69
2023/08/15 17:05:12;;;;;;;5.75;1.55;;;;;;;21.09;64.28;101751.13;10492457;28;20527;-69
2023/08/15 17:10:12;;;;;;;2.97;1.70;;;;;;;20.97;64.59;101750.38;10492263;28;20131;-69
2023/08/15 17:15:15;;;;;;;1.50;1.50;;;;;;;20.90;65.34;101756.03;10492270;28;20082;-69
2023/08/15 17:20:15;;;;;;;3.88;2.42;;;;;;;20.77;66.13;101756.28;10476029;28;20024;-69
2023/08/15 17:25:16;;;;;;;8.65;2.40;;;;;;;20.71;66.27;101754.50;10493363;28;20105;-70
2023/08/15 17:30:16;;;;;;;4.97;2.13;;;;;;;20.64;66.24;101760.16;10494183;28;20070;-69
2023/08/15 17:35:18;;;;;;;5.35;2.25;;;;;;;20.51;66.72;101763.16;10499683;28;20048;-69
2023/08/15 17:40:19;;;;;;;2.10;2.00;;;;;;;20.33;68.14;101764.16;10501886;28;20054;-69
2023/08/15 17:45:19;;;;;;;1.88;1.77;;;;;;;20.26;67.95;101763.44;10500790;28;20391;-69
2023/08/15 17:50:20;;;;;;;1.83;1.73;;;;;;;20.13;68.50;101765.38;10500345;28;20090;-68
2023/08/15 17:55:20;;;;;;;3.08;2.10;;;;;;;20.00;68.24;101771.09;10499889;28;20068;-69
2023/08/15 18:00:21;;;;;;;3.95;2.28;;;;;;;19.87;68.39;101776.84;10500908;28;20052;-69
2023/08/15 18:05:21;;;;;;;10.75;2.47;;;;;;;19.78;69.48;101765.34;10499528;28;20040;-69
2023/08/15 18:10:21;;;;;;;1.80;1.70;;;;;;;19.72;69.07;101767.16;10499807;28;20480;-69
2023/08/15 18:15:22;;;;;;;11.52;2.72;;;;;;;19.63;68.87;101775.97;10498200;28;20059;-69
2023/08/15 18:20:22;;;;;;;3.72;1.98;;;;;;;19.50;69.13;101780.59;10499627;28;20051;-69
2023/08/15 18:25:23;;;;;;;3.22;2.17;;;;;;;19.37;70.15;101785.44;10499069;28;20417;-69
2023/08/15 18:30:23;;;;;;;8.45;3.17;;;;;;;19.24;70.22;101783.72;10498094;28;20423;-69
2023/08/15 18:35:24;;;;;;;6.05;2.92;;;;;;;19.05;70.44;101783.81;10499157;28;20114;-69
2023/08/15 18:40:24;;;;;;;3.30;2.17;;;;;;;18.94;70.88;101787.31;10498625;28;20045;-69
2023/08/15 18:45:24;;;;;;;4.65;2.33;;;;;;;18.80;71.05;101775.69;10478692;28;20121;-69
2023/08/15 18:50:25;;;;;;;6.38;2.38;;;;;;;18.66;71.14;101784.28;10497825;28;20463;-69
2023/08/15 18:55:25;;;;;;;11.77;2.90;;;;;;;18.51;71.95;101785.50;10496873;28;20056;-69
2023/08/15 19:00:26;;;;;;;4.35;3.10;;;;;;;18.32;72.24;101801.13;10496279;28;20135;-69
2023/08/15 19:05:26;;;;;;;7.88;2.80;;;;;;;18.14;72.63;101798.34;10498402;28;20082;-69
2023/08/15 19:10:26;;;;;;;8.10;2.30;;;;;;;18.01;73.10;101806.69;10497591;28;20045;-69
2023/08/15 19:15:27;;;;;;;2.92;2.63;;;;;;;17.86;73.26;101802.38;10498148;28;20132;-69
2023/08/15 19:20:28;;;;;;;6.82;3.95;;;;;;;17.72;73.80;101803.53;10497013;28;20044;-69
2023/08/15 19:25:29;;;;;;;4.63;3.17;;;;;;;17.63;74.25;101813.94;10498345;28;20082;-69
2023/08/15 19:30:30;;;;;;;6.88;3.75;;;;;;;17.55;75.29;101818.81;10495572;28;20045;-69
2023/08/15 19:35:30;;;;;;;2.65;2.45;;;;;;;17.38;76.72;101810.31;10495712;28;20036;-69
2023/08/15 19:40:31;;;;;;;3.20;2.92;;;;;;;17.22;77.16;101819.88;10496361;28;20100;-69
2023/08/15 19:45:31;;;;;;;2.95;2.75;;;;;;;17.04;77.70;101839.78;10493978;28;20028;-69
2023/08/15 19:50:32;;;;;;;9.80;3.90;;;;;;;16.91;78.37;101837.06;10496184;28;20040;-69
2023/08/15 19:55:32;;;;;;;4.85;2.75;;;;;;;16.83;78.44;101840.91;10496704;28;20432;-69
2023/08/15 20:00:32;;;;;;;5.88;3.05;;;;;;;16.77;78.90;101841.78;10493512;28;20072;-69
2023/08/15 20:05:33;;;;;;;3.42;2.95;;;;;;;16.67;79.22;101855.03;10495215;28;20110;-69
2023/08/15 20:10:33;;;;;;;3.30;3.00;;;;;;;16.64;79.78;101860.94;10493575;28;20494;-72
2023/08/15 20:15:38;;;;;;;6.05;3.40;;;;;;;16.52;80.54;101867.03;10494878;28;20435;-69
2023/08/15 20:20:39;;;;;;;5.88;3.85;;;;;;;16.45;81.49;101873.59;10495200;28;20130;-69
2023/08/15 20:25:40;;;;;;;5.10;3.67;;;;;;;16.36;81.82;101883.88;10493260;28;20036;-68
2023/08/15 20:30:40;;;;;;;6.75;4.05;;;;;;;16.34;82.55;101887.91;10477109;28;20033;-68
2023/08/15 20:35:41;;;;;;;9.43;3.80;;;;;;;16.27;82.41;101896.09;10493486;28;20083;-68
2023/08/15 20:40:41;;;;;;;6.03;3.67;;;;;;;16.22;83.15;101904.94;10495287;28;20484;-68
2023/08/15 20:45:41;;;;;;;5.97;4.30;;;;;;;16.21;84.19;101908.72;10493450;28;20029;-68
2023/08/15 20:50:42;;;;;;;9.40;4.00;;;;;;;16.15;84.34;101900.53;10494897;28;20127;-69
2023/08/15 20:55:42;;;;;;;7.90;4.43;;;;;;;16.03;84.72;101911.25;10494154;28;20188;-68
2023/08/15 21:00:43;;;;;;;3.50;3.17;;;;;;;16.01;85.22;101921.53;10495061;28;20079;-69
2023/08/15 21:05:44;;;;;;;7.05;4.05;;;;;;;15.95;85.40;101931.41;10496683;28;20037;-68
2023/08/15 21:10:44;;;;;;;5.57;3.65;;;;;;;15.92;85.45;101937.28;10502188;28;20068;-68
2023/08/15 21:15:44;;;;;;;7.35;5.05;;;;;;;15.91;86.81;101932.03;10501041;28;20104;-68
2023/08/15 21:20:45;;;;;;;6.47;4.35;;;;;;;15.90;86.73;101942.13;10502596;28;20037;-69
2023/08/15 21:25:45;;;;;;;8.27;4.38;;;;;;;15.86;86.89;101948.19;10501814;28;20107;-69
2023/08/15 21:30:56;;;;;;;3.92;3.63;;;;;;;15.80;88.24;101945.25;10501078;28;20149;-69
2023/08/15 21:35:58;;;;;;;6.40;4.60;;;;;;;15.83;88.83;101943.16;10503119;28;20040;-68
2023/08/15 21:40:58;;;;;;;6.35;4.65;;;;;;;15.78;89.26;101943.75;10484361;28;20035;-68
2023/08/15 21:45:58;;;;;;;5.55;4.25;;;;;;;15.69;89.65;101947.72;10501416;28;20033;-68
2023/08/15 21:50:59;;;;;;;7.70;4.65;;;;;;;15.60;89.47;101949.75;10483295;28;20104;-68
2023/08/15 21:55:59;;;;;;;22.67;5.72;;;;;;;15.53;89.90;101952.47;10499690;28;20519;-68
2023/08/15 22:00:59;;;;;;;6.65;4.45;;;;;;;15.46;89.85;101954.34;10500201;28;20052;-68
2023/08/15 22:06:00;;;;;;;8.85;5.28;;;;;;;15.44;90.34;101953.69;10500143;28;20028;-68
2023/08/15 22:11:00;;;;;;;4.22;3.83;;;;;;;15.44;91.03;101961.88;10500123;28;20035;-68
2023/08/15 22:16:01;;;;;;;4.68;4.28;;;;;;;15.41;90.96;101956.88;10499916;28;20376;-68
2023/08/15 22:21:01;;;;;;;7.65;4.72;;;;;;;15.33;91.35;101951.56;10500009;28;20044;-68
2023/08/15 22:26:01;;;;;;;7.95;3.67;;;;;;;15.24;92.09;101953.63;10498325;28;20032;-68
2023/08/15 22:31:02;;;;;;;9.45;5.97;;;;;;;15.19;92.68;101958.00;10499576;28;20129;-68
2023/08/15 22:36:03;;;;;;;6.97;5.10;;;;;;;15.09;92.48;101959.22;10498765;28;20117;-68
2023/08/15 22:41:03;;;;;;;7.78;4.20;;;;;;;15.03;93.27;101954.56;10499051;28;20456;-68
2023/08/15 22:46:04;;;;;;;5.15;4.63;;;;;;;15.02;93.51;101949.31;10499555;28;20037;-68
2023/08/15 22:51:04;;;;;;;9.30;4.78;;;;;;;14.99;93.86;101956.00;10498954;28;20411;-68